createdAt,value
2022-08-09T00:00:05.925Z,5.22
2022-08-09T00:06:19.590Z,5.62
2022-08-09T00:07:44.885Z,8.75
2022-08-09T00:10:03.069Z,6.40
2022-08-09T00:12:34.546Z,7.85
2022-08-09T00:15:06.727Z,5.55
2022-08-09T00:18:09.413Z,4.45
2022-08-09T00:19:59.455Z,4.97
2022-08-09T00:22:35.088Z,3.55
2022-08-09T00:24:56.064Z,6.65
2022-08-09T00:27:23.505Z,4.75
2022-08-09T00:30:23.722Z,5.42
2022-08-09T00:32:25.485Z,4.67
2022-08-09T00:34:52.423Z,8.80
2022-08-09T00:37:20.881Z,5.62
2022-08-09T00:40:09.172Z,9.05
2022-08-09T00:44:14.086Z,6.20
2022-08-09T00:44:48.615Z,6.62
2022-08-09T00:47:17.217Z,7.22
2022-08-09T00:49:55.087Z,5.62
2022-08-09T00:52:17.619Z,5.95
2022-08-09T00:54:48.153Z,5.50
2022-08-09T00:57:33.875Z,4.28
2022-08-09T00:59:52.534Z,4.30
2022-08-09T01:02:25.366Z,6.87
2022-08-09T01:05:21.976Z,3.87
2022-08-09T01:08:06.641Z,7.03
2022-08-09T01:10:52.849Z,8.30
2022-08-09T01:13:53.564Z,6.35
2022-08-09T01:16:12.818Z,5.20
2022-08-09T01:18:47.489Z,5.95
2022-08-09T01:21:41.312Z,3.50
2022-08-09T01:24:31.239Z,6.12
2022-08-09T01:27:12.045Z,5.25
2022-08-09T01:30:08.393Z,5.30
2022-08-09T01:32:45.964Z,4.00
2022-08-09T01:35:38.327Z,5.28
2022-08-09T01:38:15.548Z,7.08
2022-08-09T01:41:14.595Z,7.40
2022-08-09T01:43:52.560Z,6.45
2022-08-09T01:46:27.450Z,5.62
2022-08-09T01:49:10.484Z,8.75
2022-08-09T01:51:53.861Z,5.10
2022-08-09T01:54:32.982Z,6.50
2022-08-09T01:57:30.992Z,4.12
2022-08-09T02:00:34.468Z,3.83
2022-08-09T02:02:50.586Z,7.80
2022-08-09T02:05:35.524Z,4.70
2022-08-09T02:08:35.656Z,4.22
2022-08-09T02:10:38.416Z,5.87
2022-08-09T02:13:11.611Z,9.40
2022-08-09T02:15:49.656Z,9.65
2022-08-09T02:18:25.197Z,6.20
2022-08-09T02:21:08.124Z,5.55
2022-08-09T02:23:54.826Z,4.00
2022-08-09T02:26:28.560Z,4.70
2022-08-09T02:29:00.431Z,7.92
2022-08-09T02:31:36.454Z,4.55
2022-08-09T02:34:13.590Z,4.00
2022-08-09T02:36:46.763Z,5.70
2022-08-09T02:39:33.455Z,5.60
2022-08-09T02:42:17.491Z,5.95
2022-08-09T02:44:50.553Z,4.50
2022-08-09T02:47:21.564Z,6.80
2022-08-09T02:50:01.623Z,7.45
2022-08-09T02:52:32.219Z,9.80
2022-08-09T02:55:03.192Z,5.80
2022-08-09T02:57:40.461Z,7.28
2022-08-09T03:00:21.589Z,5.12
2022-08-09T03:02:58.504Z,4.80
2022-08-09T03:05:16.613Z,6.10
2022-08-09T03:07:54.954Z,5.00
2022-08-09T03:10:16.448Z,7.63
2022-08-09T03:12:49.449Z,5.83
2022-08-09T03:15:16.367Z,5.45
2022-08-09T03:17:45.186Z,6.15
2022-08-09T03:20:15.420Z,7.03
2022-08-09T03:22:46.142Z,4.22
2022-08-09T03:25:26.000Z,9.63
2022-08-09T03:27:50.887Z,7.95
2022-08-09T03:30:30.196Z,7.90
2022-08-09T03:32:52.164Z,8.58
2022-08-09T03:35:24.770Z,9.08
2022-08-09T03:37:55.799Z,11.08
2022-08-09T03:40:21.841Z,12.10
2022-08-09T03:42:51.710Z,14.80
2022-08-09T03:46:03.126Z,10.40
2022-08-09T03:47:49.176Z,9.95
2022-08-09T03:50:18.863Z,11.40
2022-08-09T03:52:48.220Z,8.75
2022-08-09T03:55:19.108Z,7.58
2022-08-09T03:57:57.582Z,10.08
2022-08-09T04:00:20.282Z,7.05
2022-08-09T04:02:52.768Z,9.83
2022-08-09T04:05:27.467Z,10.53
2022-08-09T04:07:53.758Z,8.55
2022-08-09T04:10:21.599Z,7.55
2022-08-09T04:12:53.481Z,8.05
2022-08-09T04:15:42.612Z,8.15
2022-08-09T04:17:53.380Z,9.83
2022-08-09T04:20:22.525Z,6.00
2022-08-09T04:22:51.120Z,8.00
2022-08-09T04:25:19.667Z,9.20
2022-08-09T04:27:49.202Z,12.13
2022-08-09T04:30:20.907Z,9.93
2022-08-09T04:32:50.234Z,13.72
2022-08-09T04:35:18.546Z,8.53
2022-08-09T04:37:49.074Z,7.83
2022-08-09T04:40:19.409Z,7.35
2022-08-09T04:42:48.447Z,8.78
2022-08-09T04:45:20.419Z,8.33
2022-08-09T04:48:00.227Z,6.85
2022-08-09T04:50:16.683Z,10.15
2022-08-09T04:52:48.108Z,15.55
2022-08-09T04:55:16.092Z,20.23
2022-08-09T04:57:59.258Z,16.17
2022-08-09T05:00:16.673Z,10.35
2022-08-09T05:02:48.570Z,12.25
2022-08-09T05:05:15.114Z,10.30
2022-08-09T05:07:46.517Z,8.10
2022-08-09T05:10:14.297Z,7.72
2022-08-09T05:12:41.931Z,9.18
2022-08-09T05:15:11.835Z,7.83
2022-08-09T05:18:38.563Z,5.85
2022-08-09T05:20:10.221Z,6.72
2022-08-09T05:23:55.373Z,8.10
2022-08-09T05:25:10.065Z,11.08
2022-08-09T05:27:45.434Z,10.35
2022-08-09T05:30:09.865Z,12.00
2022-08-09T05:32:37.557Z,8.20
2022-08-09T05:37:50.504Z,8.03
2022-08-09T05:40:18.667Z,6.40
2022-08-09T05:42:47.446Z,8.00
2022-08-09T05:45:15.510Z,6.28
2022-08-09T05:47:50.848Z,8.45
2022-08-09T05:50:35.050Z,6.85
2022-08-09T05:52:44.329Z,7.92
2022-08-09T05:55:18.235Z,8.03
2022-08-09T05:57:44.680Z,7.87
2022-08-09T06:00:15.467Z,7.62
2022-08-09T06:02:46.682Z,9.58
2022-08-09T06:05:12.944Z,6.37
2022-08-09T06:07:40.656Z,6.58
2022-08-09T06:10:15.881Z,6.22
2022-08-09T06:12:40.204Z,6.58
2022-08-09T06:15:10.755Z,6.55
2022-08-09T06:17:39.040Z,8.33
2022-08-09T06:20:08.949Z,6.55
2022-08-09T06:22:36.997Z,7.15
2022-08-09T06:25:08.656Z,6.10
2022-08-09T06:27:43.138Z,6.20
2022-08-09T06:30:09.704Z,9.00
2022-08-09T06:32:59.733Z,9.25
2022-08-09T06:35:07.183Z,5.65
2022-08-09T06:37:50.713Z,7.75
2022-08-09T06:40:21.573Z,5.72
2022-08-09T06:42:45.158Z,9.33
2022-08-09T06:46:06.311Z,7.17
2022-08-09T06:47:41.910Z,7.92
2022-08-09T06:50:14.443Z,6.47
2022-08-09T06:52:45.696Z,7.42
2022-08-09T06:55:22.994Z,6.72
2022-08-09T06:58:02.623Z,9.48
2022-08-09T07:00:50.846Z,7.90
2022-08-09T07:02:50.944Z,8.25
2022-08-09T07:05:19.334Z,6.53
2022-08-09T07:08:00.884Z,14.75
2022-08-09T07:10:29.393Z,7.95
2022-08-09T07:12:57.063Z,8.03
2022-08-09T07:16:35.323Z,6.62
2022-08-09T07:17:52.824Z,7.90
2022-08-09T07:20:17.248Z,7.85
2022-08-09T07:22:53.223Z,8.90
2022-08-09T07:25:15.989Z,10.80
2022-08-09T07:27:53.483Z,8.98
2022-08-09T07:30:14.110Z,7.15
2022-08-09T07:32:42.663Z,7.00
2022-08-09T07:35:12.938Z,9.35
2022-08-09T07:37:45.836Z,7.35
2022-08-09T07:40:18.846Z,8.20
2022-08-09T07:42:59.252Z,7.00
2022-08-09T07:45:39.283Z,8.25
2022-08-09T07:48:04.477Z,9.10
2022-08-09T07:50:35.000Z,6.30
2022-08-09T07:53:02.801Z,7.37
2022-08-09T07:55:29.546Z,7.15
2022-08-09T07:57:58.948Z,7.75
2022-08-09T08:00:35.492Z,6.80
2022-08-09T08:03:00.084Z,7.47
2022-08-09T08:05:28.537Z,8.30
2022-08-09T08:09:00.877Z,9.15
2022-08-09T08:10:28.054Z,7.17
2022-08-09T08:12:57.700Z,7.35
2022-08-09T08:15:25.501Z,9.33
2022-08-09T08:17:57.937Z,9.83
2022-08-09T08:20:32.881Z,8.88
2022-08-09T08:23:15.984Z,11.25
2022-08-09T08:25:44.086Z,8.38
2022-08-09T08:28:05.790Z,6.28
2022-08-09T08:30:35.415Z,10.82
2022-08-09T08:33:04.437Z,9.63
2022-08-09T08:35:53.080Z,10.00
2022-08-09T08:38:04.849Z,8.35
2022-08-09T08:40:33.698Z,7.85
2022-08-09T08:43:05.316Z,11.08
2022-08-09T08:45:43.230Z,7.70
2022-08-09T08:48:12.040Z,9.33
2022-08-09T08:50:41.714Z,13.25
2022-08-09T08:53:16.048Z,8.10
2022-08-09T08:55:43.432Z,10.63
2022-08-09T08:58:11.720Z,8.13
2022-08-09T09:00:42.398Z,9.83
2022-08-09T09:03:22.668Z,9.40
2022-08-09T09:05:58.368Z,8.70
2022-08-09T09:08:29.322Z,7.37
2022-08-09T09:10:49.886Z,8.65
2022-08-09T09:13:20.464Z,7.87
2022-08-09T09:15:50.645Z,9.10
2022-08-09T09:18:20.024Z,9.58
2022-08-09T09:20:49.638Z,7.90
2022-08-09T09:23:40.138Z,7.90
2022-08-09T09:26:14.997Z,9.30
2022-08-09T09:29:04.543Z,13.38
2022-08-09T09:32:03.947Z,10.08
2022-08-09T09:33:56.627Z,8.95
2022-08-09T09:36:20.846Z,10.82
2022-08-09T09:38:56.412Z,10.23
2022-08-09T09:41:33.349Z,8.50
2022-08-09T09:44:11.944Z,12.30
2022-08-09T09:46:54.523Z,9.33
2022-08-09T09:49:56.202Z,11.12
2022-08-09T09:52:35.664Z,7.67
2022-08-09T09:54:42.923Z,7.72
2022-08-09T09:58:03.824Z,10.58
2022-08-09T09:59:54.358Z,9.75
2022-08-09T10:02:24.866Z,10.45
2022-08-09T10:05:09.751Z,8.35
2022-08-09T10:07:37.656Z,8.73
2022-08-09T10:10:07.989Z,8.65
2022-08-09T10:12:43.811Z,12.50
2022-08-09T10:15:17.443Z,8.08
2022-08-09T10:17:56.402Z,9.90
2022-08-09T10:20:35.746Z,8.68
2022-08-09T10:23:00.653Z,8.88
2022-08-09T10:25:34.814Z,8.53
2022-08-09T10:27:59.382Z,9.00
2022-08-09T10:32:04.270Z,8.93
2022-08-09T10:32:58.312Z,10.82
2022-08-09T10:35:27.781Z,10.13
2022-08-09T10:37:58.906Z,9.70
2022-08-09T10:40:35.028Z,14.00
2022-08-09T10:42:59.195Z,9.70
2022-08-09T10:45:31.521Z,8.68
2022-08-09T10:48:30.045Z,10.78
2022-08-09T10:51:17.492Z,8.38
2022-08-09T10:54:05.196Z,8.60
2022-08-09T10:56:38.467Z,9.55
2022-08-09T10:59:31.134Z,9.40
2022-08-09T11:03:11.831Z,9.30
2022-08-09T11:04:32.563Z,8.63
2022-08-09T11:07:05.934Z,9.15
2022-08-09T11:12:29.922Z,9.18
2022-08-09T11:15:23.886Z,8.18
2022-08-09T11:17:53.767Z,7.78
2022-08-09T11:20:43.928Z,9.60
2022-08-09T11:23:13.148Z,7.85
2022-08-09T11:25:47.462Z,9.03
2022-08-09T11:28:38.381Z,8.75
2022-08-09T11:31:50.375Z,9.33
2022-08-09T11:34:19.619Z,9.35
2022-08-09T11:39:16.674Z,6.22
2022-08-09T11:41:45.334Z,7.45
2022-08-09T11:44:13.562Z,10.10
2022-08-09T11:46:53.725Z,6.35
2022-08-09T11:50:53.921Z,8.63
2022-08-09T11:53:02.656Z,9.20
2022-08-09T11:55:53.392Z,8.28
2022-08-09T11:58:17.682Z,6.45
2022-08-09T12:00:53.066Z,8.65
2022-08-09T12:03:54.776Z,8.13
2022-08-09T12:05:57.073Z,5.50
2022-08-09T12:08:26.850Z,5.75
2022-08-09T12:10:59.829Z,8.75
2022-08-09T12:14:10.228Z,8.55
2022-08-09T12:16:30.377Z,6.75
2022-08-09T12:18:54.111Z,5.15
2022-08-09T12:21:37.222Z,7.10
2022-08-09T12:24:09.017Z,6.58
2022-08-09T12:28:59.481Z,6.37
2022-08-09T12:29:33.070Z,5.28
2022-08-09T12:32:04.833Z,4.78
2022-08-09T12:34:36.085Z,6.10
2022-08-09T12:37:09.508Z,5.42
2022-08-09T12:39:33.917Z,4.87
2022-08-09T12:42:16.224Z,8.05
2022-08-09T12:44:46.467Z,7.80
2022-08-09T12:47:14.491Z,6.00
2022-08-09T12:49:50.981Z,5.08
2022-08-09T12:52:15.789Z,6.25
2022-08-09T12:55:00.775Z,5.22
2022-08-09T12:57:42.954Z,6.83
2022-08-09T13:00:25.134Z,5.97
2022-08-09T13:03:05.990Z,6.60
2022-08-09T13:05:52.238Z,4.60
2022-08-09T13:08:39.860Z,5.33
2022-08-09T13:10:57.194Z,5.78
2022-08-09T13:13:38.303Z,4.00
2022-08-09T13:16:09.091Z,5.25
2022-08-09T13:18:53.894Z,5.78
2022-08-09T13:22:35.899Z,6.45
2022-08-09T13:24:16.525Z,5.50
2022-08-09T13:26:42.479Z,4.17
2022-08-09T13:29:17.626Z,4.60
2022-08-09T13:32:14.143Z,5.40
2022-08-09T13:34:40.196Z,5.92
2022-08-09T13:37:08.556Z,4.53
2022-08-09T13:41:46.433Z,5.00
2022-08-09T13:42:13.040Z,5.37
2022-08-09T13:44:45.765Z,5.00
2022-08-09T13:47:31.541Z,5.28
2022-08-09T13:49:57.296Z,6.47
2022-08-09T13:52:18.363Z,4.12
2022-08-09T13:54:58.882Z,6.83
2022-08-09T13:57:36.575Z,6.08
2022-08-09T13:59:45.016Z,4.72
2022-08-09T14:02:12.527Z,4.53
2022-08-09T14:04:49.471Z,6.87
2022-08-09T14:07:12.115Z,5.10
2022-08-09T14:09:40.183Z,4.70
2022-08-09T14:12:15.697Z,4.15
2022-08-09T14:14:37.819Z,6.45
2022-08-09T14:17:08.664Z,5.42
2022-08-09T14:19:38.105Z,4.28
2022-08-09T14:22:06.999Z,5.17
2022-08-09T14:24:36.520Z,4.37
2022-08-09T14:27:19.957Z,5.12
2022-08-09T14:30:35.034Z,4.58
2022-08-09T14:32:11.071Z,4.45
2022-08-09T14:34:36.220Z,3.37
2022-08-09T14:37:08.098Z,4.92
2022-08-09T14:39:45.718Z,4.65
2022-08-09T14:42:07.425Z,4.47
2022-08-09T14:44:48.976Z,4.62
2022-08-09T14:47:17.070Z,3.90
2022-08-09T14:49:40.083Z,4.80
2022-08-09T14:52:05.107Z,4.53
2022-08-09T14:54:34.040Z,3.30
2022-08-09T14:57:02.028Z,4.83
2022-08-09T14:59:31.374Z,4.85
2022-08-09T15:02:00.994Z,3.77
2022-08-09T15:04:30.501Z,3.80
2022-08-09T15:06:58.206Z,4.58
2022-08-09T15:10:03.238Z,5.90
2022-08-09T15:11:57.663Z,10.05
2022-08-09T15:14:25.337Z,4.97
2022-08-09T15:16:55.151Z,5.00
2022-08-09T15:19:26.026Z,3.50
2022-08-09T15:22:02.259Z,3.87
2022-08-09T15:24:27.055Z,5.80
2022-08-09T15:26:53.624Z,4.10
2022-08-09T15:30:48.303Z,4.00
2022-08-09T15:31:52.525Z,5.40
2022-08-09T15:34:34.360Z,4.33
2022-08-09T15:36:52.538Z,5.25
2022-08-09T15:39:20.643Z,4.12
2022-08-09T15:41:50.519Z,4.92
2022-08-09T15:44:19.678Z,9.05
2022-08-09T15:46:47.700Z,6.15
2022-08-09T15:49:22.682Z,5.28
2022-08-09T15:52:03.288Z,6.97
2022-08-09T15:54:19.458Z,5.78
2022-08-09T15:56:46.933Z,6.97
2022-08-09T15:59:16.505Z,7.47
2022-08-09T16:01:44.262Z,11.33
2022-08-09T16:04:13.471Z,6.60
2022-08-09T16:06:44.820Z,5.65
2022-08-09T16:09:10.955Z,7.17
2022-08-09T16:11:47.530Z,4.67
2022-08-09T16:14:13.746Z,7.00
2022-08-09T16:16:48.137Z,4.30
2022-08-09T16:19:13.543Z,6.50
2022-08-09T16:21:51.629Z,7.17
2022-08-09T16:24:30.007Z,4.42
2022-08-09T16:26:43.602Z,5.33
2022-08-09T16:29:15.423Z,5.50
2022-08-09T16:32:20.235Z,13.75
2022-08-09T16:34:17.419Z,5.22
2022-08-09T16:36:45.660Z,5.55
2022-08-09T16:39:14.260Z,5.55
2022-08-09T16:42:04.174Z,6.72
2022-08-09T16:44:13.317Z,8.10
2022-08-09T16:46:55.508Z,12.23
2022-08-09T16:49:26.926Z,10.88
2022-08-09T16:51:43.932Z,9.08
2022-08-09T16:54:34.626Z,8.03
2022-08-09T16:56:49.137Z,8.10
2022-08-09T16:59:12.716Z,10.58
2022-08-09T17:01:43.817Z,4.08
2022-08-09T17:04:10.107Z,3.95
2022-08-09T17:08:41.606Z,6.97
2022-08-09T17:09:44.465Z,4.35
2022-08-09T17:11:41.882Z,4.10
2022-08-09T17:14:26.704Z,3.65
2022-08-09T17:16:39.455Z,5.97
2022-08-09T17:19:08.008Z,3.60
2022-08-09T17:21:37.455Z,4.08
2022-08-09T17:24:27.071Z,6.17
2022-08-09T17:26:38.329Z,2.47
2022-08-09T17:29:05.194Z,5.12
2022-08-09T17:31:40.240Z,5.22
2022-08-09T17:34:04.089Z,2.70
2022-08-09T17:36:34.311Z,4.90
2022-08-09T17:39:03.659Z,2.77
2022-08-09T17:41:38.978Z,5.05
2022-08-09T17:44:38.371Z,5.30
2022-08-09T17:46:34.389Z,5.25
2022-08-09T17:49:00.520Z,6.28
2022-08-09T17:51:30.113Z,6.10
2022-08-09T17:53:59.285Z,6.47
2022-08-09T17:56:35.540Z,6.33
2022-08-09T17:59:11.546Z,4.50
2022-08-09T18:02:03.853Z,5.40
2022-08-09T18:04:02.877Z,7.53
2022-08-09T18:06:32.510Z,7.03
2022-08-09T18:09:04.577Z,7.53
2022-08-09T18:12:05.626Z,8.68
2022-08-09T18:14:14.701Z,6.85
2022-08-09T18:16:39.335Z,7.47
2022-08-09T18:21:01.227Z,8.73
2022-08-09T18:21:41.295Z,9.75
2022-08-09T18:24:10.591Z,10.10
2022-08-09T18:26:35.987Z,7.62
2022-08-09T18:30:42.345Z,9.08
2022-08-09T18:31:55.905Z,5.03
2022-08-09T18:34:04.587Z,6.08
2022-08-09T18:36:36.276Z,3.37
2022-08-09T18:39:03.313Z,4.28
2022-08-09T18:41:34.680Z,4.80
2022-08-09T18:44:10.617Z,5.17
2022-08-09T18:46:49.931Z,8.58
2022-08-09T18:49:03.672Z,7.95
2022-08-09T18:51:38.056Z,6.15
2022-08-09T18:54:08.545Z,3.58
2022-08-09T18:56:34.522Z,3.55
2022-08-09T18:59:03.552Z,4.05
2022-08-09T19:01:43.593Z,5.65
2022-08-09T19:04:08.074Z,6.60
2022-08-09T19:06:38.432Z,6.08
2022-08-09T19:09:06.794Z,6.75
2022-08-09T19:11:37.623Z,4.75
2022-08-09T19:14:07.108Z,6.60
2022-08-09T19:16:36.262Z,3.92
2022-08-09T19:19:25.856Z,3.65
2022-08-09T19:21:52.470Z,5.00
2022-08-09T19:24:35.612Z,5.62
2022-08-09T19:26:35.703Z,8.13
2022-08-09T19:29:15.053Z,10.85
2022-08-09T19:31:45.336Z,7.95
2022-08-09T19:34:07.274Z,9.40
2022-08-09T19:36:36.827Z,7.90
2022-08-09T19:39:05.724Z,10.63
2022-08-09T19:41:35.511Z,10.08
2022-08-09T19:44:03.695Z,10.53
2022-08-09T19:46:35.035Z,8.83
2022-08-09T19:50:06.831Z,7.17
2022-08-09T19:51:31.391Z,9.30
2022-08-09T19:54:00.855Z,6.45
2022-08-09T19:56:29.618Z,5.75
2022-08-09T19:59:39.586Z,9.18
2022-08-09T20:02:03.351Z,6.75
2022-08-09T20:04:17.067Z,7.05
2022-08-09T20:06:32.707Z,14.90
2022-08-09T20:09:00.540Z,7.28
2022-08-09T20:11:43.295Z,8.23
2022-08-09T20:13:58.358Z,6.85
2022-08-09T20:16:33.117Z,6.30
2022-08-09T20:19:42.580Z,7.97
2022-08-09T20:21:40.836Z,7.60
2022-08-09T20:23:54.569Z,6.17
2022-08-09T20:26:22.307Z,8.03
2022-08-09T20:28:50.106Z,5.70
2022-08-09T20:31:18.618Z,4.47
2022-08-09T20:33:46.649Z,5.33
2022-08-09T20:36:16.417Z,5.90
2022-08-09T20:39:18.712Z,4.37
2022-08-09T20:41:15.617Z,5.03
2022-08-09T20:43:44.898Z,4.50
2022-08-09T20:46:15.739Z,4.90
2022-08-09T20:48:44.252Z,4.30
2022-08-09T20:51:19.227Z,7.55
2022-08-09T20:53:42.547Z,6.67
2022-08-09T20:56:20.421Z,5.80
2022-08-09T20:58:43.479Z,4.97
2022-08-09T21:01:32.521Z,4.33
2022-08-09T21:05:49.640Z,5.28
2022-08-09T21:06:09.170Z,6.92
2022-08-09T21:08:38.722Z,6.75
2022-08-09T21:13:45.749Z,4.87
2022-08-09T21:16:06.622Z,6.35
2022-08-09T21:20:02.213Z,6.65
2022-08-09T21:21:17.077Z,7.22
2022-08-09T21:23:51.299Z,6.45
2022-08-09T21:26:04.955Z,6.00
2022-08-09T21:28:36.342Z,7.00
2022-08-09T21:31:18.079Z,5.65
2022-08-09T21:33:37.894Z,5.30
2022-08-09T21:36:06.201Z,6.20
2022-08-09T21:38:35.525Z,3.72
2022-08-09T21:41:04.559Z,4.53
2022-08-09T21:43:57.708Z,10.03
2022-08-09T21:46:05.654Z,4.70
2022-08-09T21:48:34.736Z,4.87
2022-08-09T21:51:02.534Z,5.20
2022-08-09T21:53:40.960Z,4.95
2022-08-09T21:56:00.233Z,5.45
2022-08-09T21:58:31.265Z,7.00
2022-08-09T22:00:59.041Z,6.00
2022-08-09T22:03:27.313Z,5.65
2022-08-09T22:05:57.834Z,6.67
2022-08-09T22:08:25.884Z,5.78
2022-08-09T22:11:50.100Z,5.70
2022-08-09T22:13:25.215Z,4.75
2022-08-09T22:15:54.822Z,4.83
2022-08-09T22:18:23.989Z,6.00
2022-08-09T22:20:52.800Z,4.12
2022-08-09T22:23:22.312Z,4.12
2022-08-09T22:26:05.979Z,4.70
2022-08-09T22:28:32.744Z,5.05
2022-08-09T22:30:50.670Z,6.30
2022-08-09T22:33:19.167Z,4.58
2022-08-09T22:36:02.592Z,5.33
2022-08-09T22:38:19.213Z,3.52
2022-08-09T22:40:48.678Z,4.83
2022-08-09T22:43:26.314Z,4.00
2022-08-09T22:48:18.406Z,5.92
2022-08-09T22:48:34.004Z,5.12
2022-08-09T22:50:52.774Z,5.20
2022-08-09T22:53:15.310Z,7.50
2022-08-09T22:56:29.611Z,8.90
2022-08-09T22:58:30.537Z,6.28
2022-08-09T23:00:41.928Z,7.03
2022-08-09T23:03:12.572Z,6.70
2022-08-09T23:05:39.462Z,5.12
2022-08-09T23:08:29.978Z,6.65
2022-08-09T23:10:56.646Z,4.90
2022-08-09T23:13:24.444Z,5.33
2022-08-09T23:16:02.679Z,5.78
2022-08-09T23:18:21.767Z,5.00
2022-08-09T23:20:49.468Z,4.15
2022-08-09T23:23:17.480Z,4.50
2022-08-09T23:25:45.113Z,5.10
2022-08-09T23:28:15.420Z,5.12
2022-08-09T23:30:51.221Z,5.35
2022-08-09T23:33:11.859Z,5.30
2022-08-09T23:36:04.700Z,6.15
2022-08-09T23:38:09.473Z,5.08
2022-08-09T23:40:37.043Z,5.90
2022-08-09T23:43:04.887Z,4.58
2022-08-09T23:45:36.863Z,4.67
2022-08-09T23:48:06.749Z,4.83
2022-08-09T23:50:31.487Z,6.87
2022-08-09T23:52:59.538Z,5.75
2022-08-09T23:55:28.953Z,9.40
2022-08-09T23:58:09.441Z,5.60
